Terminal Aerodrome Forecast
Issued by NWS

Home | Current Version | Previous Version | Graphics & Text | Print | Product List | Glossary On
Versions: 1 2 3 4 5 6 7 8 9 10 11 12 13 14 15 16 17 18 19 20 21 22
000
FTUS43 KBIS 242200 AAB
TAFDIK
TAF AMD
KDIK 242210Z 2422/2518 12009KT P6SM -SN SCT025 OVC050
      TEMPO 2422/2502 3SM -SN OVC025
     FM250200 11007KT 1SM -SN SCT009 OVC012=

USA.gov is the U.S. government's official web portal to all federal, state and local government web resources and services.